Jask, Iran
Current Conditions -  °F | °C
As of 9:00 PM on Monday 24 Nov 2014 (Local Time) from OIZJ Reporting Station
Clear Clear  
Wind Chill: 79°   Ceiling: Unl
Heat Index: 81°   Visibility: 5mi
Dew Point: 70°   Wind: 7mph
Humidity: 74%   Direction: 130°SE
Pressure: 29.94"   Gusts: NA
Location:  25.65°N, 57.78°E
Report Text: OIZJ 241800Z 13006KT 8000 SKC 26/21 Q1014
Loading
Personal Weather Stations






























Interactive Weather Map New forecast layout! Learn more

10-Day Weather Forecast

Advertisements
Track Severe Weather on mobile